createdAt,value
2023-03-18T00:02:23.300Z,10.39
2023-03-18T00:04:54.180Z,10.43
2023-03-18T00:07:24.764Z,10.47
2023-03-18T00:09:55.728Z,10.36
2023-03-18T00:12:26.301Z,10.42
2023-03-18T00:14:59.757Z,10.33
2023-03-18T00:17:30.120Z,10.20
2023-03-18T00:20:05.851Z,10.23
2023-03-18T00:22:36.667Z,10.26
2023-03-18T00:25:09.884Z,10.26
2023-03-18T00:27:41.297Z,10.20
2023-03-18T00:30:16.106Z,10.21
2023-03-18T00:32:46.692Z,10.12
2023-03-18T00:35:19.620Z,10.22
2023-03-18T00:37:49.961Z,10.21
2023-03-18T00:40:27.565Z,10.17
2023-03-18T00:43:08.135Z,10.15
2023-03-18T00:45:44.976Z,10.10
2023-03-18T00:48:15.306Z,9.98
2023-03-18T00:50:46.956Z,9.96
2023-03-18T00:53:17.939Z,10.06
2023-03-18T00:55:48.490Z,10.09
2023-03-18T00:58:19.037Z,10.16
2023-03-18T01:00:52.740Z,10.21
2023-03-18T01:03:25.884Z,10.19
2023-03-18T01:05:56.512Z,10.06
2023-03-18T01:08:27.473Z,9.98
2023-03-18T01:10:57.866Z,9.84
2023-03-18T01:13:28.623Z,9.94
2023-03-18T01:16:01.880Z,9.96
2023-03-18T01:18:34.614Z,9.95
2023-03-18T01:21:05.586Z,9.99
2023-03-18T01:23:44.016Z,9.88
2023-03-18T01:26:14.551Z,9.76
2023-03-18T01:28:47.676Z,9.76
2023-03-18T01:31:20.870Z,9.82
2023-03-18T01:33:52.032Z,9.92
2023-03-18T01:36:22.822Z,9.80
2023-03-18T01:39:06.467Z,9.88
2023-03-18T01:41:38.670Z,9.85
2023-03-18T01:44:19.335Z,9.91
2023-03-18T01:46:55.201Z,9.82
2023-03-18T01:49:35.192Z,9.91
2023-03-18T01:52:13.069Z,9.90
2023-03-18T01:54:49.587Z,9.95
2023-03-18T01:57:20.698Z,9.92
2023-03-18T01:59:52.200Z,9.96
2023-03-18T02:02:25.479Z,10.04
2023-03-18T02:05:00.802Z,10.09
2023-03-18T02:07:35.499Z,10.15
2023-03-18T02:10:13.908Z,10.18
2023-03-18T02:12:48.560Z,10.18
2023-03-18T02:15:31.427Z,10.19
2023-03-18T02:18:10.425Z,10.21
2023-03-18T02:20:55.784Z,10.25
2023-03-18T02:23:36.838Z,10.25
2023-03-18T02:26:13.948Z,10.26
2023-03-18T02:28:48.307Z,10.25
2023-03-18T02:31:20.610Z,10.15
2023-03-18T02:33:51.214Z,10.26
2023-03-18T02:36:25.599Z,10.26
2023-03-18T02:38:57.562Z,10.29
2023-03-18T02:41:31.875Z,10.31
2023-03-18T02:44:05.703Z,10.22
2023-03-18T02:46:51.943Z,10.16
2023-03-18T02:49:23.850Z,10.23
2023-03-18T02:51:54.765Z,10.18
2023-03-18T02:54:27.972Z,10.15
2023-03-18T02:57:02.056Z,10.05
2023-03-18T02:59:35.456Z,9.93
2023-03-18T03:02:06.631Z,9.95
2023-03-18T03:04:37.157Z,10.01
2023-03-18T03:07:08.172Z,10.00
2023-03-18T03:09:42.873Z,9.91
2023-03-18T03:12:13.808Z,9.92
2023-03-18T03:14:51.727Z,9.86
2023-03-18T03:17:22.903Z,9.76
2023-03-18T03:19:54.160Z,9.78
2023-03-18T03:22:24.970Z,9.78
2023-03-18T03:24:55.419Z,9.86
2023-03-18T03:27:26.256Z,9.87
2023-03-18T03:30:00.415Z,9.87
2023-03-18T03:32:30.871Z,9.86
2023-03-18T03:35:01.363Z,9.82
2023-03-18T03:37:32.097Z,9.76
2023-03-18T03:40:02.844Z,9.68
2023-03-18T03:42:35.317Z,9.66
2023-03-18T03:45:10.446Z,9.65
2023-03-18T03:47:40.978Z,9.66
2023-03-18T03:50:14.353Z,9.62
2023-03-18T03:52:45.267Z,9.62
2023-03-18T03:55:18.529Z,9.65
2023-03-18T03:57:49.801Z,9.71
2023-03-18T04:00:27.681Z,9.71
2023-03-18T04:02:58.384Z,9.73
2023-03-18T04:05:31.638Z,9.73
2023-03-18T04:08:03.675Z,9.66
2023-03-18T04:10:39.599Z,9.64
2023-03-18T04:13:13.543Z,9.66
2023-03-18T04:15:48.097Z,9.59
2023-03-18T04:18:22.212Z,9.59
2023-03-18T04:20:52.642Z,9.59
2023-03-18T04:23:33.766Z,9.57
2023-03-18T04:26:05.476Z,9.57
2023-03-18T04:28:37.102Z,9.59
2023-03-18T04:31:12.704Z,9.58
2023-03-18T04:33:43.768Z,9.56
2023-03-18T04:36:14.335Z,9.55
2023-03-18T04:38:46.451Z,9.53
2023-03-18T04:41:17.181Z,9.54
2023-03-18T04:43:47.778Z,9.56
2023-03-18T04:46:21.225Z,9.53
2023-03-18T04:48:54.963Z,9.50
2023-03-18T04:51:25.463Z,9.48
2023-03-18T04:53:56.601Z,9.45
2023-03-18T04:56:31.454Z,9.51
2023-03-18T04:59:02.604Z,9.52
2023-03-18T05:01:39.217Z,9.55
2023-03-18T05:04:10.444Z,9.56
2023-03-18T05:06:48.865Z,9.59
2023-03-18T05:09:19.604Z,9.52
2023-03-18T05:11:50.238Z,9.56
2023-03-18T05:14:33.055Z,9.55
2023-03-18T05:17:07.340Z,9.57
2023-03-18T05:19:41.170Z,9.65
2023-03-18T05:22:21.287Z,9.67
2023-03-18T05:24:56.888Z,9.71
2023-03-18T05:27:31.934Z,9.71
2023-03-18T05:30:09.413Z,9.72
2023-03-18T05:32:55.988Z,9.77
2023-03-18T05:35:40.371Z,9.85
2023-03-18T05:38:10.859Z,9.89
2023-03-18T05:40:41.373Z,9.96
2023-03-18T05:43:21.923Z,9.97
2023-03-18T05:45:56.054Z,10.04
2023-03-18T05:48:39.331Z,10.13
2023-03-18T05:51:10.348Z,10.20
2023-03-18T05:53:42.458Z,10.29
2023-03-18T05:56:30.871Z,10.34
2023-03-18T05:59:04.036Z,10.40
2023-03-18T06:01:57.142Z,10.55
2023-03-18T06:04:31.229Z,10.62
2023-03-18T06:07:03.266Z,10.71
2023-03-18T06:09:34.947Z,10.75
2023-03-18T06:12:06.439Z,10.78
2023-03-18T06:14:37.410Z,10.92
2023-03-18T06:17:09.619Z,11.11
2023-03-18T06:19:42.862Z,11.21
2023-03-18T06:22:13.486Z,11.29
2023-03-18T06:24:43.965Z,11.45
2023-03-18T06:27:14.741Z,11.59
2023-03-18T06:29:47.702Z,11.52
2023-03-18T06:32:21.847Z,11.68
2023-03-18T06:34:55.695Z,11.74
2023-03-18T06:37:26.873Z,12.00
2023-03-18T06:39:57.604Z,12.18
2023-03-18T06:42:28.158Z,12.40
2023-03-18T06:45:07.416Z,12.54
2023-03-18T06:47:58.015Z,12.78
2023-03-18T06:50:32.153Z,13.02
2023-03-18T06:53:05.624Z,13.13
2023-03-18T06:55:38.068Z,13.20
2023-03-18T06:58:09.290Z,13.19
2023-03-18T07:00:56.859Z,13.15
2023-03-18T07:03:30.681Z,13.32
2023-03-18T07:06:04.526Z,13.32
2023-03-18T07:08:36.101Z,13.44
2023-03-18T07:11:07.341Z,13.58
2023-03-18T07:13:40.926Z,13.76
2023-03-18T07:16:19.090Z,13.96
2023-03-18T07:18:49.597Z,14.14
2023-03-18T07:21:22.667Z,14.27
2023-03-18T07:23:55.569Z,14.47
2023-03-18T07:26:28.376Z,14.68
2023-03-18T07:28:58.765Z,14.82
2023-03-18T07:31:30.206Z,15.03
2023-03-18T07:34:00.852Z,15.11
2023-03-18T07:36:33.761Z,15.26
2023-03-18T07:39:04.090Z,15.33
2023-03-18T07:41:37.284Z,15.46
2023-03-18T07:44:08.935Z,15.49
2023-03-18T07:46:39.632Z,15.67
2023-03-18T07:49:10.002Z,15.88
2023-03-18T07:51:43.576Z,16.25
2023-03-18T07:54:14.416Z,17.03
2023-03-18T07:56:44.787Z,17.93
2023-03-18T07:59:18.197Z,18.67
2023-03-18T08:01:49.152Z,18.90
2023-03-18T08:04:19.971Z,19.32
2023-03-18T08:06:53.514Z,19.66
2023-03-18T08:09:24.310Z,20.56
2023-03-18T08:11:54.337Z,21.24
2023-03-18T08:14:24.869Z,21.51
2023-03-18T08:16:55.357Z,21.85
2023-03-18T08:19:26.913Z,21.87
2023-03-18T08:22:00.161Z,21.42
2023-03-18T08:24:30.818Z,21.07
2023-03-18T08:27:01.291Z,21.26
2023-03-18T08:29:32.610Z,21.21
2023-03-18T08:32:04.039Z,21.72
2023-03-18T08:34:34.468Z,21.96
2023-03-18T08:37:08.493Z,22.37
2023-03-18T08:39:39.778Z,22.59
2023-03-18T08:42:10.663Z,22.80
2023-03-18T08:44:41.812Z,23.67
2023-03-18T08:47:12.302Z,24.02
2023-03-18T08:49:42.852Z,24.97
2023-03-18T08:52:16.988Z,25.50
2023-03-18T08:54:47.940Z,25.71
2023-03-18T08:57:18.847Z,25.53
2023-03-18T08:59:49.916Z,26.04
2023-03-18T09:02:20.814Z,26.67
2023-03-18T09:04:51.397Z,26.81
2023-03-18T09:07:24.592Z,26.61
2023-03-18T09:09:55.541Z,26.55
2023-03-18T09:12:25.961Z,26.94
2023-03-18T09:14:56.346Z,27.10
2023-03-18T09:17:40.340Z,27.53
2023-03-18T09:20:19.232Z,27.81
2023-03-18T09:22:52.551Z,27.99
2023-03-18T09:25:24.681Z,27.96
2023-03-18T09:27:55.319Z,28.05
2023-03-18T09:30:26.545Z,26.64
2023-03-18T09:32:57.284Z,25.33
2023-03-18T09:35:29.229Z,24.65
2023-03-18T09:38:02.399Z,24.02
2023-03-18T09:40:38.273Z,24.22
2023-03-18T09:43:34.545Z,24.38
2023-03-18T09:46:13.017Z,24.55
2023-03-18T09:49:22.206Z,23.96
2023-03-18T09:52:03.657Z,24.34
2023-03-18T09:54:42.660Z,24.38
2023-03-18T09:57:23.013Z,23.84
2023-03-18T10:00:00.516Z,23.70
2023-03-18T10:02:36.894Z,23.81
2023-03-18T10:05:15.334Z,23.61
2023-03-18T10:07:48.595Z,23.98
2023-03-18T10:10:28.868Z,24.11
2023-03-18T10:13:10.337Z,24.22
2023-03-18T10:15:45.754Z,24.04
2023-03-18T10:18:23.924Z,23.63
2023-03-18T10:21:15.754Z,23.56
2023-03-18T10:23:58.350Z,23.30
2023-03-18T10:26:38.452Z,22.65
2023-03-18T10:29:24.699Z,22.64
2023-03-18T10:32:09.566Z,22.56
2023-03-18T10:35:00.765Z,23.09
2023-03-18T10:37:45.350Z,23.00
2023-03-18T10:40:20.188Z,23.63
2023-03-18T10:42:56.578Z,24.29
2023-03-18T10:45:31.366Z,24.69
2023-03-18T10:48:10.943Z,24.62
2023-03-18T10:50:45.926Z,25.20
2023-03-18T10:53:23.322Z,25.13
2023-03-18T10:56:02.079Z,25.09
2023-03-18T10:58:35.985Z,25.05
2023-03-18T11:01:07.882Z,25.39
2023-03-18T11:03:44.562Z,25.53
2023-03-18T11:06:28.896Z,25.42
2023-03-18T11:09:08.820Z,25.39
2023-03-18T11:11:43.346Z,25.42
2023-03-18T11:14:23.050Z,25.58
2023-03-18T11:17:01.133Z,25.94
2023-03-18T11:19:35.539Z,26.45
2023-03-18T11:22:26.205Z,26.62
2023-03-18T11:25:17.196Z,26.05
2023-03-18T11:27:51.360Z,25.86
2023-03-18T11:30:34.300Z,25.67
2023-03-18T11:33:17.551Z,25.26
2023-03-18T11:35:55.150Z,25.81
2023-03-18T11:38:32.256Z,25.93
2023-03-18T11:41:11.200Z,25.61
2023-03-18T11:43:42.033Z,25.58
2023-03-18T11:46:15.728Z,25.27
2023-03-18T11:48:49.034Z,24.69
2023-03-18T11:51:44.722Z,24.29
2023-03-18T11:54:39.507Z,23.89
2023-03-18T11:57:19.641Z,23.30
2023-03-18T12:00:05.494Z,22.87
2023-03-18T12:03:20.034Z,22.52
2023-03-18T12:06:05.510Z,22.34
2023-03-18T12:08:50.089Z,22.00
2023-03-18T12:11:35.475Z,21.86
2023-03-18T12:14:15.768Z,21.79
2023-03-18T12:17:03.890Z,21.74
2023-03-18T12:20:08.708Z,21.82
2023-03-18T12:23:05.433Z,21.91
2023-03-18T12:25:59.687Z,21.72
2023-03-18T12:29:03.137Z,21.65
2023-03-18T12:31:59.602Z,21.39
2023-03-18T12:35:07.934Z,21.32
2023-03-18T12:37:53.791Z,21.29
2023-03-18T12:40:42.883Z,21.46
2023-03-18T12:43:37.566Z,21.81
2023-03-18T12:46:24.774Z,22.17
2023-03-18T12:49:04.593Z,22.49
2023-03-18T12:51:46.321Z,22.79
2023-03-18T12:54:24.298Z,22.89
2023-03-18T12:57:01.879Z,23.13
2023-03-18T12:59:39.443Z,23.18
2023-03-18T13:02:31.679Z,23.17
2023-03-18T13:05:06.548Z,23.39
2023-03-18T13:07:47.158Z,23.48
2023-03-18T13:10:23.561Z,23.71
2023-03-18T13:12:57.633Z,24.29
2023-03-18T13:15:35.811Z,25.05
2023-03-18T13:18:16.496Z,25.73
2023-03-18T13:20:48.301Z,28.84
2023-03-18T13:23:44.846Z,30.78
2023-03-18T13:26:26.700Z,32.14
2023-03-18T13:29:20.253Z,32.71
2023-03-18T13:32:00.165Z,34.01
2023-03-18T13:35:17.797Z,34.90
2023-03-18T13:38:17.444Z,35.44
2023-03-18T13:41:32.622Z,36.01
2023-03-18T13:44:07.850Z,36.52
2023-03-18T13:46:38.686Z,35.63
2023-03-18T13:49:21.929Z,35.51
2023-03-18T13:52:01.215Z,35.99
2023-03-18T13:54:38.801Z,35.26
2023-03-18T13:57:49.706Z,35.97
2023-03-18T14:00:38.499Z,35.53
2023-03-18T14:03:23.339Z,36.02
2023-03-18T14:05:56.279Z,35.72
2023-03-18T14:08:54.670Z,35.75
2023-03-18T14:11:50.941Z,35.63
2023-03-18T14:15:08.375Z,36.17
2023-03-18T14:17:49.283Z,36.55
2023-03-18T14:20:30.225Z,36.83
2023-03-18T14:23:39.108Z,36.54
2023-03-18T14:26:20.523Z,37.00
2023-03-18T14:28:55.506Z,37.24
2023-03-18T14:31:39.337Z,37.21
2023-03-18T14:34:36.064Z,37.44
2023-03-18T14:37:32.750Z,36.56
2023-03-18T14:40:11.677Z,35.91
2023-03-18T14:42:56.777Z,34.04
2023-03-18T14:45:31.885Z,33.61
2023-03-18T14:48:10.291Z,34.29
2023-03-18T14:50:45.732Z,33.75
2023-03-18T14:53:23.688Z,33.84
2023-03-18T14:55:57.329Z,33.23
2023-03-18T14:58:29.428Z,31.80
2023-03-18T15:01:07.291Z,30.29
2023-03-18T15:03:45.378Z,30.02
2023-03-18T15:06:23.258Z,31.07
2023-03-18T15:08:56.308Z,32.08
2023-03-18T15:11:30.321Z,32.50
2023-03-18T15:14:00.835Z,33.12
2023-03-18T15:16:36.637Z,33.00
2023-03-18T15:19:09.787Z,33.49
2023-03-18T15:21:40.715Z,33.33
2023-03-18T15:24:12.395Z,32.21
2023-03-18T15:26:44.533Z,31.81
2023-03-18T15:29:28.997Z,29.71
2023-03-18T15:32:12.049Z,28.23
2023-03-18T15:34:47.292Z,27.58
2023-03-18T15:37:41.244Z,26.52
2023-03-18T15:40:28.373Z,25.55
2023-03-18T15:43:01.597Z,25.33
2023-03-18T15:45:34.387Z,25.60
2023-03-18T15:48:10.982Z,24.88
2023-03-18T15:50:56.982Z,24.32
2023-03-18T15:53:30.368Z,23.75
2023-03-18T15:56:13.559Z,23.27
2023-03-18T15:58:44.881Z,22.89
2023-03-18T16:01:20.891Z,22.70
2023-03-18T16:03:52.807Z,22.42
2023-03-18T16:06:26.917Z,22.28
2023-03-18T16:08:57.501Z,21.93
2023-03-18T16:11:28.146Z,21.57
2023-03-18T16:13:59.801Z,21.32
2023-03-18T16:16:33.687Z,21.09
2023-03-18T16:19:07.040Z,20.78
2023-03-18T16:21:40.035Z,20.55
2023-03-18T16:24:10.759Z,20.35
2023-03-18T16:26:40.820Z,20.17
2023-03-18T16:29:18.839Z,19.96
2023-03-18T16:31:49.462Z,19.85
2023-03-18T16:34:22.746Z,19.67
2023-03-18T16:36:56.215Z,19.43
2023-03-18T16:39:34.093Z,19.32
2023-03-18T16:42:05.315Z,19.20
2023-03-18T16:44:38.165Z,19.13
2023-03-18T16:47:09.491Z,18.93
2023-03-18T16:49:40.417Z,18.84
2023-03-18T16:52:16.046Z,18.68
2023-03-18T16:54:47.187Z,18.52
2023-03-18T16:57:22.047Z,18.39
2023-03-18T16:59:56.739Z,18.25
2023-03-18T17:02:35.856Z,18.08
2023-03-18T17:05:06.762Z,17.95
2023-03-18T17:07:39.783Z,17.90
2023-03-18T17:10:11.936Z,17.77
2023-03-18T17:12:44.651Z,17.64
2023-03-18T17:15:20.570Z,17.53
2023-03-18T17:17:53.159Z,17.43
2023-03-18T17:20:25.445Z,17.33
2023-03-18T17:22:59.262Z,17.17
2023-03-18T17:25:32.207Z,17.05
2023-03-18T17:28:08.567Z,16.96
2023-03-18T17:30:41.858Z,16.91
2023-03-18T17:33:25.987Z,16.74
2023-03-18T17:35:57.352Z,16.57
2023-03-18T17:38:30.794Z,16.43
2023-03-18T17:41:02.613Z,16.37
2023-03-18T17:43:36.043Z,16.21
2023-03-18T17:46:08.544Z,16.07
2023-03-18T17:48:41.178Z,15.96
2023-03-18T17:51:19.164Z,15.81
2023-03-18T17:53:56.844Z,15.72
2023-03-18T17:56:28.032Z,15.60
2023-03-18T17:58:58.389Z,15.56
2023-03-18T18:01:32.423Z,15.43
2023-03-18T18:04:04.306Z,15.31
2023-03-18T18:06:35.311Z,15.13
2023-03-18T18:09:08.282Z,14.98
2023-03-18T18:11:44.270Z,14.94
2023-03-18T18:14:22.740Z,14.80
2023-03-18T18:16:54.333Z,14.77
2023-03-18T18:19:25.205Z,14.74
2023-03-18T18:21:56.122Z,14.82
2023-03-18T18:24:33.459Z,14.71
2023-03-18T18:27:07.333Z,14.77
2023-03-18T18:29:38.056Z,14.74
2023-03-18T18:32:12.132Z,14.71
2023-03-18T18:34:42.510Z,14.67
2023-03-18T18:37:12.993Z,14.65
2023-03-18T18:39:45.981Z,14.60
2023-03-18T18:42:16.690Z,14.55
2023-03-18T18:44:47.118Z,14.45
2023-03-18T18:47:22.086Z,14.44
2023-03-18T18:49:52.893Z,14.42
2023-03-18T18:52:23.497Z,14.41
2023-03-18T18:54:56.834Z,14.31
2023-03-18T18:57:29.733Z,14.20
2023-03-18T19:00:00.393Z,14.12
2023-03-18T19:02:39.939Z,14.05
2023-03-18T19:05:11.871Z,14.02
2023-03-18T19:07:46.604Z,14.06
2023-03-18T19:10:21.569Z,14.05
2023-03-18T19:12:51.905Z,13.99
2023-03-18T19:15:22.574Z,13.98
2023-03-18T19:17:53.193Z,13.91
2023-03-18T19:20:33.518Z,13.93
2023-03-18T19:23:04.532Z,13.91
2023-03-18T19:25:37.487Z,13.93
2023-03-18T19:28:08.243Z,14.05
2023-03-18T19:30:38.924Z,14.17
2023-03-18T19:33:18.653Z,14.17
2023-03-18T19:35:49.474Z,14.13
2023-03-18T19:38:24.391Z,14.16
2023-03-18T19:40:57.528Z,14.11
2023-03-18T19:43:27.878Z,14.13
2023-03-18T19:45:58.555Z,14.13
2023-03-18T19:48:30.271Z,14.08
2023-03-18T19:51:01.441Z,14.05
2023-03-18T19:53:32.410Z,14.06
2023-03-18T19:56:08.676Z,14.11
2023-03-18T19:58:39.537Z,14.11
2023-03-18T20:01:10.086Z,13.98
2023-03-18T20:03:40.683Z,13.83
2023-03-18T20:06:11.136Z,13.75
2023-03-18T20:08:41.883Z,13.68
2023-03-18T20:11:21.143Z,13.79
2023-03-18T20:13:51.997Z,13.86
2023-03-18T20:16:22.870Z,13.85
2023-03-18T20:18:54.847Z,13.75
2023-03-18T20:21:32.367Z,13.78
2023-03-18T20:24:08.410Z,13.81
2023-03-18T20:26:42.217Z,13.80
2023-03-18T20:29:20.989Z,13.68
2023-03-18T20:31:51.694Z,13.72
2023-03-18T20:34:23.152Z,13.68
2023-03-18T20:36:53.850Z,13.72
2023-03-18T20:39:26.557Z,13.72
2023-03-18T20:41:59.876Z,13.70
2023-03-18T20:44:30.773Z,13.79
2023-03-18T20:47:01.244Z,13.78
2023-03-18T20:49:31.753Z,13.82
2023-03-18T20:52:02.677Z,13.86
2023-03-18T20:54:35.488Z,13.85
2023-03-18T20:57:09.299Z,13.75
2023-03-18T20:59:39.859Z,13.65
2023-03-18T21:02:31.226Z,13.73
2023-03-18T21:05:04.365Z,13.70
2023-03-18T21:07:34.803Z,13.64
2023-03-18T21:10:05.250Z,13.61
2023-03-18T21:12:39.345Z,13.58
2023-03-18T21:15:18.180Z,13.49
2023-03-18T21:17:49.474Z,13.45
2023-03-18T21:20:23.625Z,13.38
2023-03-18T21:22:57.368Z,13.27
2023-03-18T21:25:31.157Z,13.29
2023-03-18T21:28:05.512Z,13.37
2023-03-18T21:30:36.235Z,13.39
2023-03-18T21:33:22.178Z,13.34
2023-03-18T21:35:56.896Z,13.32
2023-03-18T21:38:28.500Z,13.33
2023-03-18T21:40:59.203Z,13.28
2023-03-18T21:43:37.361Z,13.27
2023-03-18T21:46:12.976Z,13.22
2023-03-18T21:48:46.638Z,13.19
2023-03-18T21:51:38.226Z,13.14
2023-03-18T21:54:09.747Z,13.15
2023-03-18T21:56:40.394Z,13.17
2023-03-18T21:59:13.580Z,13.18
2023-03-18T22:01:44.124Z,13.13
2023-03-18T22:04:14.949Z,13.19
2023-03-18T22:06:48.230Z,13.15
2023-03-18T22:09:18.697Z,13.20
2023-03-18T22:11:49.517Z,13.24
2023-03-18T22:14:22.768Z,13.16
2023-03-18T22:16:53.244Z,13.19
2023-03-18T22:19:23.689Z,13.20
2023-03-18T22:21:54.240Z,13.03
2023-03-18T22:24:27.613Z,13.04
2023-03-18T22:26:57.966Z,12.96
2023-03-18T22:29:31.334Z,12.91
2023-03-18T22:32:02.363Z,13.01
2023-03-18T22:34:32.478Z,13.08
2023-03-18T22:37:02.888Z,13.10
2023-03-18T22:39:33.222Z,13.17
2023-03-18T22:42:03.638Z,13.20
2023-03-18T22:44:36.770Z,13.19
2023-03-18T22:47:07.752Z,13.19
2023-03-18T22:49:37.825Z,13.16
2023-03-18T22:52:08.911Z,13.15
2023-03-18T22:54:39.223Z,13.05
2023-03-18T22:57:09.650Z,13.04
2023-03-18T22:59:42.733Z,13.06
2023-03-18T23:02:20.959Z,13.06
2023-03-18T23:04:52.319Z,13.04
2023-03-18T23:07:33.103Z,13.04
2023-03-18T23:10:06.072Z,12.97
2023-03-18T23:12:36.560Z,12.92
2023-03-18T23:15:11.954Z,12.90
2023-03-18T23:17:42.570Z,12.85
2023-03-18T23:20:15.062Z,12.89
2023-03-18T23:22:46.394Z,12.94
2023-03-18T23:25:20.048Z,12.94
2023-03-18T23:27:50.576Z,12.89
2023-03-18T23:30:23.708Z,12.95
2023-03-18T23:32:54.272Z,12.91
2023-03-18T23:35:27.768Z,12.82
2023-03-18T23:37:58.195Z,12.74
2023-03-18T23:40:28.938Z,12.65
2023-03-18T23:42:59.614Z,12.63
2023-03-18T23:45:33.418Z,12.59
2023-03-18T23:48:04.243Z,12.63
2023-03-18T23:50:35.050Z,12.56
2023-03-18T23:53:05.852Z,12.46
2023-03-18T23:55:36.467Z,12.49
2023-03-18T23:58:07.155Z,12.49
